Time;durP1;ratioP1;P1;durP2;ratioP2;P2;SDS_P1;SDS_P2;PMS_P1;PMS_P2;Temp;Humidity;BMP_temperature;BMP_pressure;BME280_temperature;BME280_humidity;BME280_pressure;Samples;Min_cycle;Max_cycle;Signal;HPM_P1;HPM_P2
2021/09/28 00:00:56;;;;;;;21.75;19.55;;;19.10;99.90;;;;;;5083161;28;20029;-79
2021/09/28 00:03:22;;;;;;;22.02;17.55;;;19.10;99.90;;;;;;5079200;28;20021;-79
2021/09/28 00:05:48;;;;;;;22.15;18.83;;;19.10;99.90;;;;;;5078908;28;20020;-79
2021/09/28 00:08:17;;;;;;;19.50;17.48;;;19.00;99.90;;;;;;5082655;28;20020;-78
2021/09/28 00:10:43;;;;;;;19.80;17.65;;;19.10;99.90;;;;;;5080202;28;20086;-79
2021/09/28 00:13:09;;;;;;;19.80;17.73;;;19.00;99.90;;;;;;5088806;28;20032;-79
2021/09/28 00:15:43;;;;;;;23.60;18.95;;;19.00;99.90;;;;;;5082884;28;20489;-79
2021/09/28 00:18:09;;;;;;;20.63;18.80;;;18.90;99.90;;;;;;5087644;28;20043;-78
2021/09/28 00:20:38;;;;;;;21.58;19.33;;;18.90;99.90;;;;;;5082244;28;20186;-79
2021/09/28 00:23:06;;;;;;;22.17;19.85;;;18.90;99.90;;;;;;5058962;28;20087;-79
2021/09/28 00:25:32;;;;;;;21.33;19.30;;;19.00;99.90;;;;;;5081885;28;20024;-79
2021/09/28 00:27:58;;;;;;;21.45;19.42;;;18.90;99.90;;;;;;5060535;28;20059;-78
2021/09/28 00:30:29;;;;;;;21.70;19.60;;;18.80;99.90;;;;;;5075276;28;20501;-79
2021/09/28 00:32:55;;;;;;;21.30;19.13;;;18.90;99.90;;;;;;5069319;28;20111;-79
2021/09/28 00:35:21;;;;;;;22.70;19.65;;;18.90;99.90;;;;;;5088340;28;20080;-79
2021/09/28 00:37:47;;;;;;;21.98;20.13;;;18.80;99.90;;;;;;5081147;28;20032;-79
2021/09/28 00:40:13;;;;;;;21.90;19.50;;;18.90;99.90;;;;;;5072435;28;20031;-79
2021/09/28 00:42:39;;;;;;;26.08;20.95;;;18.90;99.90;;;;;;5071701;28;20423;-79
2021/09/28 00:45:07;;;;;;;21.58;19.27;;;18.90;99.90;;;;;;5084555;28;20073;-79
2021/09/28 00:47:34;;;;;;;21.70;19.52;;;18.90;99.90;;;;;;5084069;28;20032;-80
2021/09/28 00:50:00;;;;;;;23.30;20.85;;;18.80;99.90;;;;;;5066498;28;20431;-79
2021/09/28 00:52:26;;;;;;;23.75;21.30;;;18.80;99.90;;;;;;5075707;28;20089;-79
2021/09/28 00:54:55;;;;;;;22.48;20.08;;;18.80;99.90;;;;;;5077435;28;20017;-79
2021/09/28 00:57:21;;;;;;;24.63;22.27;;;18.80;99.90;;;;;;5059254;28;20053;-79
2021/09/28 00:59:50;;;;;;;22.38;20.20;;;18.70;99.90;;;;;;5068992;28;20032;-79
2021/09/28 01:02:17;;;;;;;24.20;21.70;;;18.70;99.90;;;;;;5066693;28;20028;-79
2021/09/28 01:04:42;;;;;;;25.35;23.02;;;18.70;99.90;;;;;;5076949;28;20059;-79
2021/09/28 01:07:10;;;;;;;24.20;22.02;;;18.70;99.90;;;;;;5068523;28;20051;-79
2021/09/28 01:09:45;;;;;;;24.52;22.23;;;18.70;99.90;;;;;;5079385;28;20056;-79
2021/09/28 01:12:13;;;;;;;25.85;23.27;;;18.70;99.90;;;;;;5054040;28;20038;-78
2021/09/28 01:14:42;;;;;;;29.88;22.63;;;18.60;99.90;;;;;;5067256;28;20028;-79
2021/09/28 01:17:13;;;;;;;25.33;22.90;;;18.50;99.90;;;;;;5093208;28;20016;-78
2021/09/28 01:19:39;;;;;;;24.52;22.23;;;18.50;99.90;;;;;;5076906;28;20047;-79
2021/09/28 01:22:08;;;;;;;24.40;21.88;;;18.50;99.90;;;;;;5076102;28;20043;-79
2021/09/28 01:24:35;;;;;;;22.92;20.98;;;18.50;99.90;;;;;;5069849;28;20060;-79
2021/09/28 01:27:01;;;;;;;25.58;23.38;;;18.50;99.90;;;;;;5077506;28;20020;-79
2021/09/28 01:29:27;;;;;;;24.08;21.10;;;18.50;99.90;;;;;;5084045;28;20028;-79
2021/09/28 01:31:53;;;;;;;25.80;23.38;;;18.50;99.90;;;;;;5063802;28;20033;-79
2021/09/28 01:34:19;;;;;;;26.35;23.70;;;18.50;99.90;;;;;;5083799;28;20128;-79
2021/09/28 01:36:49;;;;;;;25.58;22.95;;;18.50;99.90;;;;;;5075321;28;20025;-79
2021/09/28 01:39:20;;;;;;;28.05;25.25;;;18.50;99.90;;;;;;5070620;28;20028;-79
2021/09/28 01:41:47;;;;;;;25.93;23.57;;;18.50;99.90;;;;;;5085491;28;20055;-80
2021/09/28 01:44:15;;;;;;;26.80;24.05;;;18.50;99.90;;;;;;5081704;28;20035;-79
2021/09/28 01:46:43;;;;;;;26.83;24.25;;;18.50;99.90;;;;;;5075977;28;20033;-79
2021/09/28 01:49:10;;;;;;;29.15;26.27;;;18.40;99.90;;;;;;5082267;28;20593;-80
2021/09/28 01:51:37;;;;;;;27.63;24.83;;;18.40;99.90;;;;;;5062035;28;20598;-79
2021/09/28 01:54:10;;;;;;;28.25;25.48;;;18.30;99.90;;;;;;5084849;28;20382;-79
2021/09/28 01:56:37;;;;;;;26.13;23.38;;;18.30;99.90;;;;;;5081465;28;20036;-79
2021/09/28 01:59:04;;;;;;;29.33;26.00;;;18.30;99.90;;;;;;5079974;28;20479;-79
2021/09/28 02:01:30;;;;;;;27.35;24.30;;;18.30;99.90;;;;;;5082701;28;20025;-79
2021/09/28 02:03:57;;;;;;;28.20;25.17;;;18.40;99.90;;;;;;5057444;28;20031;-79
2021/09/28 02:06:30;;;;;;;28.65;25.83;;;18.40;99.90;;;;;;5079509;28;20104;-79
2021/09/28 02:08:56;;;;;;;27.23;24.58;;;18.40;99.90;;;;;;5069546;28;20036;-80
2021/09/28 02:11:22;;;;;;;29.02;24.05;;;18.40;99.90;;;;;;5065153;28;20402;-79
2021/09/28 02:13:49;;;;;;;26.20;23.55;;;18.40;99.90;;;;;;5068294;28;20032;-79
2021/09/28 02:16:18;;;;;;;29.30;26.52;;;18.40;99.90;;;;;;5086402;28;20020;-79
2021/09/28 02:18:47;;;;;;;28.58;24.25;;;18.40;99.90;;;;;;5070339;28;20385;-79
2021/09/28 02:21:13;;;;;;;26.38;24.17;;;18.20;99.90;;;;;;5074200;28;20081;-80
2021/09/28 02:23:41;;;;;;;26.17;23.05;;;18.20;99.90;;;;;;5081920;28;20025;-79
2021/09/28 02:26:14;;;;;;;24.70;22.48;;;18.30;99.90;;;;;;5065304;28;20032;-79
2021/09/28 02:28:40;;;;;;;26.80;24.40;;;18.30;99.90;;;;;;5080936;28;20089;-79
2021/09/28 02:31:06;;;;;;;26.50;23.92;;;18.40;99.90;;;;;;5087806;28;20032;-79
2021/09/28 02:33:33;;;;;;;24.48;22.38;;;18.30;99.90;;;;;;5083216;28;20095;-79
2021/09/28 02:35:59;;;;;;;26.33;23.08;;;18.40;99.90;;;;;;5073068;28;20031;-79
2021/09/28 02:38:27;;;;;;;26.05;23.33;;;18.40;99.90;;;;;;5057839;28;20037;-79
2021/09/28 02:40:56;;;;;;;25.55;22.80;;;18.30;99.90;;;;;;5071327;28;20051;-79
2021/09/28 02:43:22;;;;;;;25.05;22.45;;;18.30;99.90;;;;;;5072643;28;20028;-79
2021/09/28 02:45:50;;;;;;;23.55;21.42;;;18.30;99.90;;;;;;5090926;28;20016;-79
2021/09/28 02:48:16;;;;;;;22.60;20.52;;;18.30;99.90;;;;;;5083163;28;20021;-79
2021/09/28 02:50:48;;;;;;;23.70;21.48;;;18.30;99.90;;;;;;5074414;28;20052;-79
2021/09/28 02:53:14;;;;;;;;;;;18.40;99.90;;;;;;5056140;28;20444;-79
2021/09/28 02:55:40;;;;;;;21.80;19.60;;;18.40;99.90;;;;;;5082781;28;19916;-79
2021/09/28 02:58:12;;;;;;;20.98;18.80;;;18.40;99.90;;;;;;5081621;28;20035;-79
2021/09/28 03:00:38;;;;;;;18.30;16.60;;;18.40;99.90;;;;;;5081579;28;20044;-79
2021/09/28 03:03:07;;;;;;;19.45;17.35;;;18.40;99.90;;;;;;5083402;28;20128;-78
2021/09/28 03:18:53;;;;;;;18.65;16.92;;;18.20;99.90;;;;;;5077635;28;20039;-79
2021/09/28 03:22:18;;;;;;;18.48;16.60;;;18.20;99.90;;;;;;5077773;28;20016;-79
2021/09/28 03:25:41;;;;;;;20.98;18.80;;;18.20;99.90;;;;;;5064769;28;20025;-78
2021/09/28 03:29:02;;;;;;;20.02;18.08;;;18.10;99.90;;;;;;5053820;28;20055;-78
2021/09/28 03:31:38;;;;;;;20.27;18.23;;;18.10;99.90;;;;;;4963255;28;20034;-78
2021/09/28 03:34:11;;;;;;;20.38;18.42;;;18.00;99.90;;;;;;4976015;28;20057;-78
2021/09/28 03:36:37;;;;;;;19.58;17.70;;;17.90;99.90;;;;;;5049887;28;20059;-78
2021/09/28 03:39:12;;;;;;;21.30;19.20;;;17.90;99.90;;;;;;5058335;28;20028;-79
2021/09/28 03:41:54;;;;;;;;;;;;;;;;;;;;;
2021/09/28 03:51:24;;;;;;;20.23;18.13;;;17.80;99.90;;;;;;4982537;28;20527;-78
2021/09/28 03:58:15;;;;;;;21.88;17.75;;;17.80;99.90;;;;;;4961677;28;20046;-79
2021/09/28 04:00:42;;;;;;;19.70;18.02;;;17.80;99.90;;;;;;4955141;28;20049;-78
2021/09/28 04:07:06;;;;;;;;;;;;;;;;;;;;;
2021/09/28 04:17:19;;;;;;;;;;;;;;;;;;;;;
2021/09/28 04:23:38;;;;;;;22.88;18.40;;;17.60;99.90;;;;;;4808833;29;20053;-78
2021/09/28 04:26:52;;;;;;;19.33;17.30;;;17.70;99.90;;;;;;4880146;28;20620;-78
2021/09/28 04:32:34;;;;;;;20.30;18.30;;;17.60;99.90;;;;;;5064309;28;20076;-78
2021/09/28 04:35:03;;;;;;;22.20;20.10;;;17.70;99.90;;;;;;5072737;28;20174;-78
2021/09/28 04:41:12;;;;;;;21.70;19.95;;;17.60;99.90;;;;;;5005099;28;20030;-78
2021/09/28 05:07:03;;;;;;;;;;;;;;;;;;;;;
2021/09/28 05:13:29;;;;;;;20.40;18.17;;;17.70;99.90;;;;;;4863278;29;20090;-79
2021/09/28 05:19:10;;;;;;;18.77;16.83;;;17.60;99.90;;;;;;4934408;29;20111;-79
2021/09/28 05:22:03;;;;;;;20.15;18.05;;;17.60;99.90;;;;;;4963929;28;20070;-79
2021/09/28 05:24:28;;;;;;;18.23;16.55;;;17.70;99.90;;;;;;4974374;28;20046;-78
2021/09/28 05:26:54;;;;;;;18.98;17.17;;;17.70;99.90;;;;;;4982151;28;20038;-78
2021/09/28 05:29:20;;;;;;;19.75;17.80;;;17.70;99.90;;;;;;5005446;28;20043;-79
2021/09/28 05:31:47;;;;;;;21.80;18.77;;;17.80;99.90;;;;;;5078882;28;20024;-79
2021/09/28 05:34:15;;;;;;;21.08;18.38;;;17.80;99.90;;;;;;5066886;28;20422;-78
2021/09/28 05:36:42;;;;;;;19.70;17.15;;;17.90;99.90;;;;;;5080806;28;20021;-78
2021/09/28 05:39:46;;;;;;;15.85;14.25;;;17.80;99.90;;;;;;5070447;28;20048;-78
2021/09/28 05:42:21;;;;;;;24.33;15.50;;;17.90;99.90;;;;;;5046202;28;20037;-78
2021/09/28 05:44:48;;;;;;;19.08;16.40;;;17.90;99.90;;;;;;5060957;28;20028;-78
2021/09/28 05:50:08;;;;;;;18.55;16.80;;;18.00;99.90;;;;;;5080900;28;20050;-79
2021/09/28 05:52:35;;;;;;;16.00;14.23;;;18.10;99.90;;;;;;5060102;28;20071;-75
2021/09/28 05:55:02;;;;;;;20.38;15.48;;;18.10;99.90;;;;;;5053560;28;20033;-75
2021/09/28 05:57:28;;;;;;;22.45;16.50;;;18.10;99.90;;;;;;5048697;28;20067;-75
2021/09/28 05:59:54;;;;;;;18.77;16.83;;;18.00;99.90;;;;;;5054089;28;20067;-75
2021/09/28 06:02:19;;;;;;;19.23;16.67;;;18.10;99.90;;;;;;5062928;28;20100;-75
2021/09/28 06:04:46;;;;;;;16.70;15.00;;;18.20;99.90;;;;;;5054649;28;20070;-75
2021/09/28 06:07:14;;;;;;;23.58;16.83;;;18.30;99.90;;;;;;5054395;28;20034;-75
2021/09/28 06:09:41;;;;;;;19.10;15.75;;;18.30;99.90;;;;;;5068252;28;20094;-75
2021/09/28 06:12:09;;;;;;;16.67;15.07;;;18.30;99.90;;;;;;5060346;28;20036;-74
2021/09/28 06:14:36;;;;;;;16.63;14.88;;;18.40;99.90;;;;;;5055320;28;20079;-75
2021/09/28 06:17:03;;;;;;;18.83;16.00;;;18.50;99.90;;;;;;5063975;28;20052;-75
2021/09/28 06:19:29;;;;;;;20.25;15.13;;;18.50;99.90;;;;;;5055716;28;20024;-75
2021/09/28 06:21:56;;;;;;;15.95;14.43;;;18.70;99.90;;;;;;5050313;28;20040;-74
2021/09/28 06:24:23;;;;;;;17.08;15.32;;;18.70;99.90;;;;;;5058849;28;20031;-75
2021/09/28 06:26:49;;;;;;;14.52;12.30;;;18.80;99.90;;;;;;5058285;28;20107;-75
2021/09/28 06:29:16;;;;;;;15.45;13.07;;;18.90;99.90;;;;;;5057877;28;20020;-75
2021/09/28 06:31:42;;;;;;;12.20;11.05;;;19.00;99.90;;;;;;5059852;28;20028;-75
2021/09/28 06:34:09;;;;;;;22.35;12.27;;;19.10;99.90;;;;;;5049633;28;20107;-74
2021/09/28 06:36:36;;;;;;;12.95;11.68;;;19.20;99.90;;;;;;5066955;28;20025;-75
2021/09/28 06:39:02;;;;;;;16.15;12.60;;;19.20;99.90;;;;;;5081109;28;20416;-75
2021/09/28 06:41:28;;;;;;;13.05;9.73;;;19.30;99.90;;;;;;5042519;28;20475;-75
2021/09/28 06:43:56;;;;;;;14.05;10.57;;;19.40;99.90;;;;;;5049598;28;20047;-74
2021/09/28 06:46:22;;;;;;;12.70;10.48;;;19.60;99.90;;;;;;5054278;28;20281;-75
2021/09/28 06:48:48;;;;;;;13.82;9.38;;;19.60;99.90;;;;;;5036177;28;20115;-75
2021/09/28 06:51:15;;;;;;;13.60;8.80;;;19.70;99.90;;;;;;5056445;28;20025;-75
2021/09/28 06:53:41;;;;;;;12.88;10.15;;;19.70;99.90;;;;;;5058707;28;20544;-75
2021/09/28 06:56:07;;;;;;;19.35;12.50;;;19.80;99.90;;;;;;5061147;28;20040;-75
2021/09/28 06:58:33;;;;;;;17.63;13.82;;;19.90;99.90;;;;;;5056201;28;20090;-75
2021/09/28 07:00:59;;;;;;;10.18;9.05;;;20.00;99.90;;;;;;5062267;28;20175;-78
2021/09/28 07:03:25;;;;;;;14.05;12.60;;;20.10;99.90;;;;;;5059894;28;20116;-75
2021/09/28 07:05:51;;;;;;;10.90;9.77;;;20.20;99.90;;;;;;5058324;28;20173;-74
2021/09/28 07:08:17;;;;;;;10.73;8.85;;;20.30;99.90;;;;;;5058590;28;20574;-75
2021/09/28 07:10:43;;;;;;;12.15;9.95;;;20.40;99.90;;;;;;5059969;28;20052;-75
2021/09/28 07:13:09;;;;;;;17.90;9.10;;;20.50;99.90;;;;;;5067307;28;20052;-75
2021/09/28 07:15:35;;;;;;;15.77;8.60;;;20.50;99.90;;;;;;5084337;28;20034;-75
2021/09/28 07:18:00;;;;;;;10.30;9.30;;;20.60;99.90;;;;;;5082837;28;20020;-74
2021/09/28 07:20:26;;;;;;;9.40;8.48;;;20.70;99.90;;;;;;5088030;28;20035;-74
2021/09/28 07:22:52;;;;;;;9.88;8.55;;;20.80;99.90;;;;;;5088436;28;20029;-76
2021/09/28 07:25:18;;;;;;;13.45;8.15;;;21.00;99.90;;;;;;5087193;28;20021;-75
2021/09/28 07:27:46;;;;;;;10.40;7.93;;;21.10;99.90;;;;;;5080473;28;20035;-75
2021/09/28 07:30:12;;;;;;;11.60;8.45;;;21.20;99.90;;;;;;5074932;28;20150;-75
2021/09/28 07:32:39;;;;;;;10.48;7.43;;;21.20;99.90;;;;;;5077390;28;20406;-75
2021/09/28 07:35:06;;;;;;;11.27;7.50;;;21.30;99.90;;;;;;5084307;28;20050;-74
2021/09/28 07:37:32;;;;;;;9.25;7.25;;;21.40;99.90;;;;;;5088317;28;20101;-75
2021/09/28 07:39:58;;;;;;;18.35;8.27;;;21.40;99.90;;;;;;5094071;28;20436;-76
2021/09/28 07:42:25;;;;;;;20.52;8.32;;;21.50;99.90;;;;;;5087061;28;20028;-76
2021/09/28 07:44:56;;;;;;;18.80;9.48;;;21.50;99.90;;;;;;5076873;28;20024;-76
2021/09/28 07:47:23;;;;;;;29.85;9.80;;;21.60;99.90;;;;;;5088588;28;20050;-75
2021/09/28 07:49:48;;;;;;;19.27;10.40;;;21.60;99.90;;;;;;5081548;28;20017;-76
2021/09/28 07:52:15;;;;;;;24.40;11.60;;;21.60;99.90;;;;;;5088579;28;20027;-75
2021/09/28 07:54:41;;;;;;;37.70;12.23;;;21.60;99.90;;;;;;5082743;28;20032;-65
2021/09/28 07:57:08;;;;;;;33.88;12.38;;;21.70;99.90;;;;;;5078635;28;20037;-66
2021/09/28 07:59:35;;;;;;;19.25;12.07;;;21.60;99.90;;;;;;5072151;28;20032;-66
2021/09/28 08:02:01;;;;;;;18.42;11.30;;;21.50;99.90;;;;;;5079372;28;20029;-66
2021/09/28 08:04:26;;;;;;;23.80;12.20;;;21.50;99.90;;;;;;5087610;28;20490;-65
2021/09/28 08:06:55;;;;;;;36.65;12.38;;;21.50;99.90;;;;;;5082316;28;20025;-68
2021/09/28 08:09:21;;;;;;;27.40;11.25;;;21.70;99.90;;;;;;5078143;28;20025;-66
2021/09/28 08:11:47;;;;;;;18.00;10.73;;;21.80;99.90;;;;;;5082554;28;20054;-65
2021/09/28 08:14:13;;;;;;;13.55;10.90;;;21.90;99.90;;;;;;5086007;28;20022;-70
2021/09/28 08:16:45;;;;;;;19.42;13.07;;;22.00;99.90;;;;;;5057783;28;20021;-66
2021/09/28 08:19:11;;;;;;;18.75;14.05;;;22.00;99.90;;;;;;5086721;28;20085;-65
2021/09/28 08:21:37;;;;;;;22.45;14.63;;;22.10;99.90;;;;;;5087882;28;20486;-66
2021/09/28 08:24:03;;;;;;;19.10;13.93;;;22.10;99.90;;;;;;5073960;28;20469;-66
2021/09/28 08:29:10;;;;;;;25.48;13.75;;;22.20;99.90;;;;;;5084232;28;20072;-65
2021/09/28 08:31:41;;;;;;;14.70;13.05;;;22.20;99.90;;;;;;5073912;28;20040;-65
2021/09/28 08:34:08;;;;;;;24.13;13.63;;;22.30;99.90;;;;;;5072938;28;20115;-67
2021/09/28 08:36:34;;;;;;;14.57;12.73;;;22.30;99.90;;;;;;5074033;28;20078;-64
2021/09/28 08:39:01;;;;;;;16.55;12.80;;;22.30;99.90;;;;;;5056222;28;20025;-68
2021/09/28 08:41:27;;;;;;;13.02;11.75;;;22.30;99.90;;;;;;5074005;28;20162;-65
2021/09/28 08:43:53;;;;;;;22.92;10.52;;;22.40;99.90;;;;;;5073557;28;20524;-66
2021/09/28 08:46:20;;;;;;;16.30;11.30;;;22.30;99.90;;;;;;5072705;28;20262;-66
2021/09/28 08:48:48;;;;;;;28.60;12.90;;;22.40;99.90;;;;;;5053322;28;20030;-66
2021/09/28 08:51:14;;;;;;;16.25;11.55;;;22.40;99.90;;;;;;5054379;28;20028;-64
2021/09/28 08:53:41;;;;;;;15.77;12.90;;;22.50;99.90;;;;;;5058257;28;20062;-66
2021/09/28 08:56:11;;;;;;;21.60;11.13;;;22.40;99.90;;;;;;5073745;28;20395;-67
2021/09/28 08:59:03;;;;;;;20.42;9.85;;;22.40;99.90;;;;;;5073578;28;20032;-73
2021/09/28 09:01:34;;;;;;;19.30;11.43;;;22.30;99.90;;;;;;5055704;28;20498;-74
2021/09/28 09:04:21;;;;;;;19.88;13.13;;;22.20;99.90;;;;;;5047435;28;20036;-73
2021/09/28 09:06:47;;;;;;;28.13;13.55;;;22.10;99.90;;;;;;5071910;28;20039;-73
2021/09/28 09:09:15;;;;;;;17.15;13.15;;;22.10;99.90;;;;;;5072352;28;20031;-75
2021/09/28 09:11:43;;;;;;;16.20;12.00;;;22.20;99.90;;;;;;5072902;28;20061;-76
2021/09/28 09:14:19;;;;;;;16.80;11.88;;;22.20;99.90;;;;;;5073262;28;20029;-74
2021/09/28 09:16:47;;;;;;;19.88;13.40;;;22.20;99.90;;;;;;5073122;28;20100;-74
2021/09/28 09:19:28;;;;;;;17.70;12.32;;;22.20;99.90;;;;;;5074497;28;20100;-74
2021/09/28 09:22:02;;;;;;;19.98;14.68;;;22.20;99.90;;;;;;5071791;28;20036;-74
2021/09/28 09:24:49;;;;;;;15.52;13.93;;;22.20;99.90;;;;;;5054500;28;20047;-75
2021/09/28 09:27:29;;;;;;;14.38;11.77;;;22.20;99.90;;;;;;5069650;28;20493;-75
2021/09/28 09:30:20;;;;;;;14.30;13.02;;;22.20;99.90;;;;;;5085695;28;20246;-75
2021/09/28 09:32:55;;;;;;;15.02;13.52;;;22.20;99.90;;;;;;5077865;28;20025;-74
2021/09/28 09:35:31;;;;;;;12.77;11.45;;;22.20;99.90;;;;;;5075064;28;20399;-74
2021/09/28 09:38:18;;;;;;;16.23;12.85;;;22.20;99.90;;;;;;5072653;28;20033;-72
2021/09/28 09:40:46;;;;;;;24.00;13.15;;;22.30;99.90;;;;;;5073754;28;20104;-72
2021/09/28 09:43:18;;;;;;;17.08;13.60;;;22.30;99.90;;;;;;5073365;28;20128;-73
2021/09/28 09:45:44;;;;;;;;;;;22.50;99.90;;;;;;5036272;28;20021;-73
2021/09/28 09:48:26;;;;;;;20.48;15.18;;;22.40;99.90;;;;;;5051814;28;19905;-74
2021/09/28 09:51:00;;;;;;;21.27;13.77;;;22.40;99.90;;;;;;5053306;28;20013;-74
2021/09/28 09:53:26;;;;;;;18.00;14.20;;;22.40;99.90;;;;;;5073472;28;20097;-74
2021/09/28 09:55:52;;;;;;;16.92;14.73;;;22.50;99.90;;;;;;5058023;28;20471;-74
2021/09/28 09:58:20;;;;;;;20.38;14.48;;;22.50;99.90;;;;;;5057089;28;20024;-73
2021/09/28 10:00:48;;;;;;;15.73;13.85;;;22.60;99.90;;;;;;5070004;28;20035;-76
2021/09/28 10:03:15;;;;;;;18.67;15.00;;;22.60;99.90;;;;;;5087629;28;20067;-74
2021/09/28 10:05:41;;;;;;;25.75;13.82;;;22.70;99.90;;;;;;5086265;28;20021;-74
2021/09/28 10:08:11;;;;;;;14.15;12.85;;;22.70;99.90;;;;;;5090683;28;20425;-74
2021/09/28 10:10:38;;;;;;;13.77;12.13;;;22.70;99.90;;;;;;5097301;28;20047;-74
2021/09/28 10:13:05;;;;;;;15.27;13.75;;;22.70;99.90;;;;;;5063368;28;20422;-74
2021/09/28 10:15:32;;;;;;;15.52;13.90;;;22.70;99.90;;;;;;5039520;28;20021;-73
2021/09/28 10:17:58;;;;;;;15.90;12.45;;;22.70;99.90;;;;;;5073601;28;20575;-74
2021/09/28 10:20:23;;;;;;;11.73;10.60;;;22.60;99.90;;;;;;5081028;28;20344;-73
2021/09/28 10:22:52;;;;;;;16.08;12.93;;;22.70;99.90;;;;;;5082826;28;20034;-73
2021/09/28 10:25:21;;;;;;;13.32;12.15;;;22.70;99.90;;;;;;5085752;28;20478;-74
2021/09/28 10:27:51;;;;;;;12.48;11.18;;;22.70;99.90;;;;;;5073131;28;20107;-73
2021/09/28 10:30:35;;;;;;;11.98;10.88;;;22.70;99.90;;;;;;5079804;28;20031;-73
2021/09/28 10:33:23;;;;;;;12.13;10.82;;;22.60;99.90;;;;;;5076968;28;20020;-73
2021/09/28 10:36:16;;;;;;;14.13;9.65;;;22.70;99.90;;;;;;5092570;28;20036;-74
2021/09/28 10:39:03;;;;;;;11.05;9.98;;;22.60;99.90;;;;;;5094653;28;20111;-75
2021/09/28 10:41:33;;;;;;;13.57;10.40;;;22.70;99.90;;;;;;5087707;28;20428;-73
2021/09/28 10:44:24;;;;;;;10.23;9.25;;;22.80;99.90;;;;;;5077139;28;20046;-73
2021/09/28 10:46:50;;;;;;;10.73;9.13;;;22.90;99.90;;;;;;5083769;28;20178;-74
2021/09/28 10:49:34;;;;;;;11.98;10.13;;;22.90;99.90;;;;;;5073615;28;20028;-74
2021/09/28 10:52:35;;;;;;;11.18;10.02;;;23.00;99.90;;;;;;5079466;28;20023;-74
2021/09/28 10:55:07;;;;;;;9.38;8.57;;;23.10;99.90;;;;;;5031232;28;20472;-74
2021/09/28 10:58:09;;;;;;;15.85;11.10;;;23.10;99.90;;;;;;5052512;28;20032;-74
2021/09/28 11:00:38;;;;;;;11.60;9.73;;;23.30;99.90;;;;;;5078059;28;20071;-75
2021/09/28 11:03:04;;;;;;;10.70;9.50;;;23.20;99.90;;;;;;5085799;28;20343;-75
2021/09/28 11:05:39;;;;;;;12.02;10.82;;;23.30;99.90;;;;;;5095255;28;20385;-73
2021/09/28 11:08:07;;;;;;;10.93;9.82;;;23.30;99.90;;;;;;5094935;28;20027;-78
2021/09/28 11:10:36;;;;;;;15.73;11.13;;;23.50;99.90;;;;;;5097449;28;20027;-76
2021/09/28 11:13:10;;;;;;;16.77;10.88;;;23.40;99.90;;;;;;5096233;28;20027;-74
2021/09/28 11:15:37;;;;;;;12.50;10.18;;;23.50;99.90;;;;;;5096040;28;20604;-74
2021/09/28 11:18:07;;;;;;;11.30;8.75;;;23.50;99.90;;;;;;5093477;28;20032;-74
2021/09/28 11:20:34;;;;;;;12.88;8.70;;;23.50;99.90;;;;;;5084963;28;20020;-74
2021/09/28 11:23:07;;;;;;;8.93;8.07;;;23.50;99.90;;;;;;5080857;28;20103;-74
2021/09/28 11:25:35;;;;;;;9.40;8.40;;;23.60;99.90;;;;;;5082091;28;20356;-75
2021/09/28 11:28:07;;;;;;;11.15;8.05;;;23.60;99.90;;;;;;5079783;28;20016;-74
2021/09/28 11:30:36;;;;;;;8.48;7.53;;;23.70;99.90;;;;;;5058350;28;20055;-74
2021/09/28 11:33:07;;;;;;;8.57;7.85;;;23.70;99.90;;;;;;5075922;28;20413;-75
2021/09/28 11:35:34;;;;;;;10.32;5.97;;;23.80;99.90;;;;;;5088202;28;20033;-75
2021/09/28 11:38:04;;;;;;;26.95;9.57;;;23.90;99.90;;;;;;5076133;28;20035;-74
2021/09/28 11:40:35;;;;;;;54.10;11.43;;;24.00;99.90;;;;;;5075782;28;20021;-75
2021/09/28 11:43:19;;;;;;;57.60;10.95;;;24.10;99.90;;;;;;5078283;28;20082;-75
2021/09/28 11:45:55;;;;;;;22.50;9.13;;;24.10;99.90;;;;;;5077210;28;20029;-74
2021/09/28 11:48:21;;;;;;;35.47;11.52;;;24.20;99.90;;;;;;5077034;28;20012;-74
2021/09/28 11:50:49;;;;;;;45.53;10.15;;;24.10;99.90;;;;;;5075913;28;20108;-74
2021/09/28 11:53:16;;;;;;;23.75;9.63;;;24.10;99.90;;;;;;5069384;28;20048;-74
2021/09/28 11:55:42;;;;;;;43.92;11.30;;;24.10;99.90;;;;;;5080451;28;20486;-75
2021/09/28 11:58:08;;;;;;;12.32;9.52;;;24.10;99.90;;;;;;5076485;28;20153;-75
2021/09/28 12:00:35;;;;;;;16.50;9.88;;;24.10;99.90;;;;;;5073571;28;20095;-74
2021/09/28 12:03:08;;;;;;;11.25;8.63;;;24.10;99.90;;;;;;5073778;28;20423;-74
2021/09/28 12:08:25;;;;;;;;;;;24.20;99.90;;;;;;5074351;28;20031;-73
2021/09/28 12:10:54;;;;;;;30.17;11.80;;;24.20;99.90;;;;;;5073974;28;19908;-74
2021/09/28 12:13:27;;;;;;;21.35;11.10;;;24.20;99.90;;;;;;5079464;28;20024;-74
2021/09/28 12:16:04;;;;;;;26.98;12.63;;;24.20;99.90;;;;;;5090064;28;20028;-74
2021/09/28 12:18:30;;;;;;;14.65;11.07;;;24.20;99.90;;;;;;5067149;28;20028;-75
2021/09/28 12:21:17;;;;;;;21.25;11.13;;;24.20;99.90;;;;;;5071812;28;20094;-74
2021/09/28 12:23:43;;;;;;;12.52;11.02;;;24.20;99.90;;;;;;5073121;28;20031;-74
2021/09/28 12:26:29;;;;;;;15.02;12.52;;;24.20;99.90;;;;;;5071799;28;20016;-74
2021/09/28 12:28:56;;;;;;;15.10;11.18;;;24.20;99.90;;;;;;5071965;28;20039;-74
2021/09/28 12:31:40;;;;;;;15.85;12.45;;;24.30;99.90;;;;;;5075003;28;20084;-74
2021/09/28 12:34:06;;;;;;;13.65;12.45;;;24.40;99.90;;;;;;5074939;28;20033;-75
2021/09/28 12:36:32;;;;;;;18.38;12.35;;;24.50;99.90;;;;;;5074570;28;20025;-74
2021/09/28 12:39:17;;;;;;;21.75;12.18;;;24.70;99.90;;;;;;5074984;28;20035;-74
2021/09/28 12:41:57;;;;;;;16.58;11.52;;;24.80;99.90;;;;;;5074810;28;20021;-75
2021/09/28 12:44:24;;;;;;;21.33;11.25;;;24.80;99.90;;;;;;5065438;28;20100;-75
2021/09/28 12:46:52;;;;;;;23.80;13.77;;;24.70;99.90;;;;;;5036638;28;20111;-76
2021/09/28 12:50:05;;;;;;;;;;;;;;;;;;;;;
2021/09/28 12:52:31;;;;;;;22.80;13.70;;;24.80;99.90;;;;;;5060099;28;20447;-74
2021/09/28 12:55:16;;;;;;;15.50;12.73;;;24.80;99.90;;;;;;5073318;28;20511;-77
2021/09/28 12:57:42;;;;;;;16.38;12.43;;;24.70;99.90;;;;;;5066744;28;20071;-75
2021/09/28 13:00:24;;;;;;;16.67;13.75;;;24.80;99.90;;;;;;5072150;28;20078;-74
2021/09/28 13:03:02;;;;;;;15.48;13.85;;;24.80;99.90;;;;;;5068713;28;20090;-77
2021/09/28 13:05:31;;;;;;;16.63;13.57;;;24.90;99.90;;;;;;5080920;28;20021;-74
2021/09/28 13:07:57;;;;;;;21.23;13.13;;;25.00;99.90;;;;;;5055049;28;20028;-74
2021/09/28 13:10:23;;;;;;;16.30;13.90;;;25.10;99.90;;;;;;5067958;28;20380;-74
2021/09/28 13:12:49;;;;;;;19.77;13.85;;;25.20;99.90;;;;;;5068149;28;20071;-74
2021/09/28 13:15:17;;;;;;;15.88;13.82;;;25.10;99.90;;;;;;5055104;28;20021;-74
2021/09/28 13:17:43;;;;;;;21.60;13.75;;;25.10;99.90;;;;;;5074499;28;20084;-75
2021/09/28 13:20:10;;;;;;;13.38;10.60;;;25.10;99.90;;;;;;5092670;28;20024;-73
2021/09/28 13:22:37;;;;;;;20.08;14.18;;;25.10;99.90;;;;;;5069231;28;20028;-74
2021/09/28 13:25:05;;;;;;;15.77;14.23;;;25.10;99.90;;;;;;5084664;28;20462;-73
2021/09/28 13:27:31;;;;;;;17.00;14.60;;;25.20;99.90;;;;;;5082855;28;20498;-73
2021/09/28 13:29:57;;;;;;;15.48;14.00;;;25.20;99.90;;;;;;5068622;28;20077;-74
2021/09/28 13:32:23;;;;;;;19.52;14.00;;;25.20;99.90;;;;;;5069515;28;20496;-74
2021/09/28 13:34:49;;;;;;;17.08;13.55;;;25.10;99.90;;;;;;5084433;28;20105;-74
2021/09/28 13:37:15;;;;;;;14.20;12.90;;;25.10;99.90;;;;;;5057314;28;20025;-74
2021/09/28 13:39:41;;;;;;;14.40;12.90;;;25.00;99.90;;;;;;5065717;28;20031;-74
2021/09/28 13:42:08;;;;;;;19.20;13.18;;;25.00;99.90;;;;;;5074154;28;20393;-76
2021/09/28 13:44:35;;;;;;;16.85;11.25;;;25.10;99.90;;;;;;5072555;28;20035;-74
2021/09/28 13:47:01;;;;;;;13.70;12.27;;;25.00;99.90;;;;;;5073080;28;20394;-73
2021/09/28 13:49:27;;;;;;;12.80;11.55;;;24.90;99.90;;;;;;5056793;28;20033;-75
2021/09/28 13:51:53;;;;;;;21.77;11.88;;;24.90;99.90;;;;;;5082742;28;20572;-74
2021/09/28 13:54:19;;;;;;;11.63;10.68;;;24.80;99.90;;;;;;5083368;28;20017;-75
2021/09/28 13:56:45;;;;;;;14.90;11.68;;;24.90;99.90;;;;;;5098265;28;20051;-73
2021/09/28 13:59:11;;;;;;;16.02;12.05;;;25.10;99.90;;;;;;5099120;28;20470;-74
2021/09/28 14:01:36;;;;;;;13.77;11.50;;;25.10;99.90;;;;;;5088634;28;20035;-74
2021/09/28 14:04:02;;;;;;;11.57;10.18;;;25.20;99.90;;;;;;5069391;28;20078;-73
2021/09/28 14:06:28;;;;;;;11.25;9.98;;;25.40;99.90;;;;;;5070074;28;20035;-74
2021/09/28 14:08:54;;;;;;;10.40;9.38;;;25.60;99.90;;;;;;5068770;28;20029;-72
2021/09/28 14:11:21;;;;;;;13.40;9.85;;;25.60;99.90;;;;;;5067384;28;20021;-75
2021/09/28 14:13:47;;;;;;;11.38;9.60;;;25.60;99.90;;;;;;5068650;28;20027;-73
2021/09/28 14:16:15;;;;;;;12.00;9.48;;;25.70;99.90;;;;;;5050457;28;20029;-73